createdAt,value
2022-12-12T00:01:32.899Z,-2.80
2022-12-12T00:04:00.949Z,-2.80
2022-12-12T00:06:29.082Z,-2.80
2022-12-12T00:08:56.229Z,-2.80
2022-12-12T00:11:25.270Z,-2.80
2022-12-12T00:16:23.367Z,-2.70
2022-12-12T00:18:51.062Z,-2.80
2022-12-12T00:21:23.505Z,-2.80
2022-12-12T00:23:51.326Z,-2.80
2022-12-12T00:26:32.250Z,-2.70
2022-12-12T00:29:01.840Z,-2.70
2022-12-12T00:31:29.721Z,-2.80
2022-12-12T00:36:30.129Z,-2.80
2022-12-12T00:43:53.402Z,-2.80
2022-12-12T00:46:26.076Z,-2.80
2022-12-12T00:48:59.181Z,-2.80
2022-12-12T00:51:29.185Z,-2.70
2022-12-12T00:53:58.730Z,-2.80
2022-12-12T00:56:29.306Z,-2.80
2022-12-12T01:01:28.911Z,-2.80
2022-12-12T01:06:24.342Z,-2.80
2022-12-12T01:08:52.447Z,-2.80
2022-12-12T01:11:20.713Z,-2.80
2022-12-12T01:13:51.379Z,-2.80
2022-12-12T01:16:19.270Z,-2.90
2022-12-12T01:21:18.204Z,-2.80
2022-12-12T01:23:45.819Z,-2.80
2022-12-12T01:26:18.431Z,-2.80
2022-12-12T01:28:46.543Z,-2.80
2022-12-12T01:36:22.122Z,-2.70
2022-12-12T01:38:53.198Z,-2.70
2022-12-12T01:41:20.924Z,-2.70
2022-12-12T01:43:48.312Z,-2.70
2022-12-12T01:46:39.080Z,-2.70
2022-12-12T01:49:20.528Z,-2.70
2022-12-12T01:51:52.796Z,-2.70
2022-12-12T01:54:31.647Z,-2.70
2022-12-12T01:57:05.513Z,-2.70
2022-12-12T01:59:34.968Z,-2.70
2022-12-12T02:06:57.676Z,-2.70
2022-12-12T02:09:25.959Z,-2.90
2022-12-12T02:11:58.051Z,-2.70
2022-12-12T02:14:35.268Z,-2.80
2022-12-12T02:17:55.669Z,-2.80
2022-12-12T02:21:46.290Z,-2.80
2022-12-12T02:24:51.451Z,-2.70
2022-12-12T02:27:52.268Z,-2.80
2022-12-12T02:30:45.397Z,-2.80
2022-12-12T02:33:29.705Z,-2.80
2022-12-12T02:36:27.457Z,-2.80
2022-12-12T02:39:27.774Z,-2.80
2022-12-12T02:42:04.746Z,-2.80
2022-12-12T02:44:54.832Z,-2.80
2022-12-12T02:47:31.030Z,-2.80
2022-12-12T02:50:14.026Z,-2.80
2022-12-12T02:52:43.898Z,-2.80
2022-12-12T03:00:17.951Z,-2.70
2022-12-12T03:03:28.522Z,-2.80
2022-12-12T03:06:53.974Z,-2.80
2022-12-12T03:10:01.946Z,-2.80
2022-12-12T03:12:48.819Z,-2.70
2022-12-12T03:15:32.750Z,-2.70
2022-12-12T03:18:27.593Z,-2.70
2022-12-12T03:21:19.246Z,-2.70
2022-12-12T03:23:54.534Z,-2.70
2022-12-12T03:26:47.451Z,-2.70
2022-12-12T03:29:38.310Z,-2.80
2022-12-12T03:32:23.399Z,-2.70
2022-12-12T03:35:00.988Z,-2.70
2022-12-12T03:37:52.467Z,-2.70
2022-12-12T03:40:31.733Z,-2.70
2022-12-12T03:43:33.952Z,-2.80
2022-12-12T03:46:28.628Z,-2.80
2022-12-12T03:49:13.842Z,-2.80
2022-12-12T03:51:51.315Z,-2.70
2022-12-12T03:54:29.667Z,-2.80
2022-12-12T03:57:10.451Z,-2.80
2022-12-12T03:59:54.256Z,-2.80
2022-12-12T04:02:51.746Z,-2.80
2022-12-12T04:05:28.332Z,-2.80
2022-12-12T04:08:11.492Z,-2.80
2022-12-12T04:11:09.839Z,-2.80
2022-12-12T04:14:01.198Z,-2.80
2022-12-12T04:16:40.520Z,-2.80
2022-12-12T04:20:13.148Z,-2.90
2022-12-12T04:23:18.079Z,-2.90
2022-12-12T04:26:34.524Z,-3.00
2022-12-12T04:29:18.998Z,-3.00
2022-12-12T04:32:28.675Z,-3.10
2022-12-12T04:35:04.025Z,-3.10
2022-12-12T04:37:42.726Z,-3.20
2022-12-12T04:40:22.240Z,-3.20
2022-12-12T04:43:14.245Z,-3.20
2022-12-12T04:45:53.349Z,-3.30
2022-12-12T04:48:37.028Z,-3.30
2022-12-12T04:51:10.177Z,-3.40
2022-12-12T04:53:48.925Z,-3.50
2022-12-12T04:56:27.520Z,-3.60
2022-12-12T04:58:54.860Z,-3.70
2022-12-12T05:02:04.267Z,-3.70
2022-12-12T05:04:52.365Z,-3.80
2022-12-12T05:07:41.213Z,-3.90
2022-12-12T05:10:16.896Z,-3.90
2022-12-12T05:12:50.188Z,-3.90
2022-12-12T05:15:20.305Z,-3.80
2022-12-12T05:17:59.165Z,-3.80
2022-12-12T05:22:53.565Z,-3.70
2022-12-12T05:25:20.564Z,-3.70
2022-12-12T05:27:48.685Z,-3.60
2022-12-12T05:30:16.058Z,-3.60
2022-12-12T05:32:43.015Z,-3.60
2022-12-12T05:35:11.108Z,-3.60
2022-12-12T05:40:08.999Z,-3.50
2022-12-12T05:42:36.022Z,-3.40
2022-12-12T05:47:31.293Z,-3.40
2022-12-12T05:52:26.289Z,-3.30
2022-12-12T05:54:54.137Z,-3.20
2022-12-12T05:59:48.887Z,-3.20
2022-12-12T06:02:17.086Z,-3.30
2022-12-12T06:04:44.522Z,-3.30
2022-12-12T06:07:11.626Z,-3.20
2022-12-12T06:09:38.605Z,-3.20
2022-12-12T06:12:06.134Z,-3.10
2022-12-12T06:19:28.022Z,-3.10
2022-12-12T06:24:23.165Z,-3.10
2022-12-12T06:31:45.306Z,-3.10
2022-12-12T06:36:39.847Z,-3.30
2022-12-12T06:39:06.942Z,-3.40
2022-12-12T06:44:01.792Z,-3.50
2022-12-12T06:46:29.897Z,-3.50
2022-12-12T06:48:57.683Z,-3.50
2022-12-12T06:51:31.703Z,-3.50
2022-12-12T06:56:27.779Z,-3.40
2022-12-12T06:58:57.771Z,-2.20
2022-12-12T07:01:25.593Z,-3.50
2022-12-12T07:03:53.462Z,-3.60
2022-12-12T07:06:23.327Z,-3.70
2022-12-12T07:08:52.051Z,-3.80
2022-12-12T07:11:26.251Z,-3.80
2022-12-12T07:13:56.389Z,-3.90
2022-12-12T07:16:24.238Z,-3.90
2022-12-12T07:21:21.139Z,-4.00
2022-12-12T07:23:48.634Z,-4.00
2022-12-12T07:26:24.471Z,-4.10
2022-12-12T07:28:51.969Z,-4.10
2022-12-12T07:31:25.393Z,-4.30
2022-12-12T07:33:54.218Z,-4.30
2022-12-12T07:38:49.007Z,-4.30
2022-12-12T07:41:20.224Z,-4.30
2022-12-12T07:43:49.767Z,-4.20
2022-12-12T07:46:22.623Z,-4.10
2022-12-12T07:51:19.372Z,-3.90
2022-12-12T07:56:16.325Z,-3.70
2022-12-12T07:58:44.257Z,-3.60
2022-12-12T08:01:19.992Z,-3.50
2022-12-12T08:03:51.888Z,-3.40
2022-12-12T08:06:22.181Z,-3.30
2022-12-12T08:08:51.040Z,-3.20
2022-12-12T08:11:22.916Z,-3.10
2022-12-12T08:13:51.324Z,-3.10
2022-12-12T08:16:26.953Z,-3.00
2022-12-12T08:18:58.592Z,-3.00
2022-12-12T08:21:27.678Z,-3.10
2022-12-12T08:24:00.915Z,-3.00
2022-12-12T08:26:29.702Z,-3.00
2022-12-12T08:31:25.965Z,-2.80
2022-12-12T08:33:53.643Z,-2.80
2022-12-12T08:36:31.490Z,-2.80
2022-12-12T08:39:06.893Z,-2.60
2022-12-12T08:41:40.748Z,-2.60
2022-12-12T08:44:11.171Z,-2.60
2022-12-12T08:46:39.328Z,-2.70
2022-12-12T08:51:38.946Z,-2.50
2022-12-12T08:54:06.305Z,-2.40
2022-12-12T08:59:01.137Z,-2.10
2022-12-12T09:03:48.345Z,-2.00
2022-12-12T09:06:17.005Z,-2.00
2022-12-12T09:08:45.510Z,-1.90
2022-12-12T09:11:13.275Z,-1.80
2022-12-12T09:13:41.248Z,-1.90
2022-12-12T09:16:10.340Z,-1.80
2022-12-12T09:18:43.224Z,-1.80
2022-12-12T09:21:15.033Z,-1.80
2022-12-12T09:26:10.423Z,-1.80
2022-12-12T09:28:37.765Z,-1.70
2022-12-12T09:31:08.887Z,-1.50
2022-12-12T09:33:36.582Z,-1.20
2022-12-12T09:36:07.610Z,-1.10
2022-12-12T09:41:18.231Z,-1.10
2022-12-12T09:44:05.098Z,-1.30
2022-12-12T09:46:57.154Z,-1.30
2022-12-12T09:49:51.415Z,-1.30
2022-12-12T09:52:33.579Z,-1.30
2022-12-12T09:55:33.655Z,-1.30
2022-12-12T09:58:49.081Z,-1.30
2022-12-12T10:01:52.941Z,-1.20
2022-12-12T10:04:32.503Z,-1.10
2022-12-12T10:07:41.959Z,-0.70
2022-12-12T10:10:40.525Z,1.30
2022-12-12T10:13:21.665Z,2.60
2022-12-12T10:16:14.412Z,2.80
2022-12-12T10:18:52.303Z,3.30
2022-12-12T10:21:30.150Z,3.40
2022-12-12T10:24:25.771Z,3.30
2022-12-12T10:26:54.362Z,3.60
2022-12-12T10:29:25.292Z,3.60
2022-12-12T10:32:11.169Z,3.30
2022-12-12T10:35:16.913Z,2.10
2022-12-12T10:38:33.874Z,0.70
2022-12-12T10:41:57.476Z,0.40
2022-12-12T10:44:55.532Z,-0.50
2022-12-12T10:47:22.928Z,-0.60
2022-12-12T10:50:13.738Z,-0.80
2022-12-12T10:52:41.129Z,-0.80
2022-12-12T10:55:29.450Z,-0.10
2022-12-12T10:58:05.326Z,0.00
2022-12-12T11:00:38.008Z,0.10
2022-12-12T11:04:02.073Z,-0.10
2022-12-12T11:06:51.045Z,-0.10
2022-12-12T11:09:27.577Z,0.00
2022-12-12T11:12:09.413Z,0.70
2022-12-12T11:14:46.832Z,0.90
2022-12-12T11:17:32.669Z,0.50
2022-12-12T11:20:07.332Z,0.10
2022-12-12T11:25:05.809Z,-0.50
2022-12-12T11:27:38.824Z,-0.50
2022-12-12T11:33:08.117Z,-0.50
2022-12-12T11:35:45.533Z,-0.60
2022-12-12T11:38:23.985Z,-0.60
2022-12-12T11:41:11.003Z,-0.70
2022-12-12T11:43:57.925Z,-0.70
2022-12-12T11:46:30.177Z,-0.80
2022-12-12T11:49:04.806Z,-0.90
2022-12-12T11:54:31.095Z,-1.00
2022-12-12T11:57:17.734Z,-0.90
2022-12-12T12:00:17.750Z,-0.90
2022-12-12T12:03:24.291Z,-0.90
2022-12-12T12:06:22.445Z,-0.80
2022-12-12T12:09:22.481Z,-0.20
2022-12-12T12:12:16.733Z,1.70
2022-12-12T12:15:03.533Z,1.20
2022-12-12T12:17:45.807Z,0.60
2022-12-12T12:23:56.639Z,-0.10
2022-12-12T12:27:31.799Z,-0.50
2022-12-12T12:30:21.122Z,-0.90
2022-12-12T12:33:36.006Z,-0.40
2022-12-12T12:36:25.255Z,0.90
2022-12-12T12:39:39.941Z,2.10
2022-12-12T12:42:22.460Z,3.90
2022-12-12T12:45:25.776Z,4.60
2022-12-12T12:48:37.494Z,6.40
2022-12-12T12:51:36.839Z,6.60
2022-12-12T12:54:25.798Z,6.20
2022-12-12T12:57:03.616Z,5.30
2022-12-12T12:59:40.511Z,3.30
2022-12-12T13:02:51.153Z,2.10
2022-12-12T13:05:44.267Z,0.70
2022-12-12T13:08:25.641Z,1.50
2022-12-12T13:11:05.705Z,2.20
2022-12-12T13:13:40.382Z,1.30
2022-12-12T13:16:21.580Z,0.80
2022-12-12T13:19:10.132Z,0.60
2022-12-12T13:22:14.443Z,0.30
2022-12-12T13:25:33.451Z,0.00
2022-12-12T13:28:07.897Z,0.40
2022-12-12T13:30:58.415Z,0.30
2022-12-12T13:33:47.185Z,-0.10
2022-12-12T13:36:29.566Z,0.00
2022-12-12T13:39:02.036Z,-0.40
2022-12-12T13:42:10.223Z,-0.70
2022-12-12T13:44:50.687Z,-0.90
2022-12-12T13:47:23.721Z,-1.10
2022-12-12T13:50:08.408Z,-1.10
2022-12-12T13:52:42.146Z,-0.70
2022-12-12T13:55:12.708Z,-0.30
2022-12-12T13:58:05.852Z,1.10
2022-12-12T14:00:40.105Z,2.20
2022-12-12T14:03:10.098Z,2.20
2022-12-12T14:05:53.333Z,2.70
2022-12-12T14:08:35.824Z,3.00
2022-12-12T14:11:08.268Z,3.10
2022-12-12T14:13:45.217Z,3.30
2022-12-12T14:16:25.960Z,3.00
2022-12-12T14:19:23.796Z,2.30
2022-12-12T14:21:51.056Z,1.80
2022-12-12T14:24:33.350Z,1.70
2022-12-12T14:27:06.384Z,1.80
2022-12-12T14:29:43.442Z,1.70
2022-12-12T14:32:13.618Z,1.20
2022-12-12T14:35:47.449Z,1.00
2022-12-12T14:38:50.713Z,0.90
2022-12-12T14:41:34.347Z,0.30
2022-12-12T14:44:34.947Z,-0.30
2022-12-12T14:47:07.637Z,-1.00
2022-12-12T14:49:34.717Z,-1.50
2022-12-12T14:56:59.518Z,-2.70
2022-12-12T14:59:38.389Z,-3.10
2022-12-12T15:02:33.173Z,-3.40
2022-12-12T15:05:07.099Z,-3.30
2022-12-12T15:07:38.538Z,-3.40
2022-12-12T15:10:30.498Z,-3.60
2022-12-12T15:12:57.639Z,-3.80
2022-12-12T15:15:32.010Z,-3.90
2022-12-12T15:18:01.567Z,-4.00
2022-12-12T15:20:32.286Z,-4.00
2022-12-12T15:23:04.786Z,-4.20
2022-12-12T15:25:47.553Z,-4.40
2022-12-12T15:28:21.900Z,-4.60
2022-12-12T15:30:53.285Z,-4.60
2022-12-12T15:33:28.488Z,-4.80
2022-12-12T15:36:02.928Z,-5.00
2022-12-12T15:38:32.256Z,-5.20
2022-12-12T15:41:06.732Z,-5.10
2022-12-12T15:43:38.933Z,-5.00
2022-12-12T15:46:14.636Z,-5.00
2022-12-12T15:48:49.640Z,-4.90
2022-12-12T15:51:24.712Z,-4.90
2022-12-12T15:53:55.222Z,-5.00
2022-12-12T15:59:16.140Z,-5.20
2022-12-12T16:01:43.959Z,-5.40
2022-12-12T16:04:11.252Z,-5.50
2022-12-12T16:06:45.810Z,-5.60
2022-12-12T16:11:58.933Z,-5.80
2022-12-12T16:14:42.834Z,-6.00
2022-12-12T16:17:25.887Z,-6.20
2022-12-12T16:20:13.766Z,-6.30
2022-12-12T16:22:48.903Z,-6.30
2022-12-12T16:25:29.268Z,-6.40
2022-12-12T16:28:20.193Z,-6.50
2022-12-12T16:30:57.143Z,-6.50
2022-12-12T16:35:56.997Z,-6.50
2022-12-12T16:38:24.759Z,-6.60
2022-12-12T16:40:55.413Z,-6.60
2022-12-12T16:43:24.350Z,-6.60
2022-12-12T16:45:54.563Z,-6.60
2022-12-12T16:48:29.059Z,-6.60
2022-12-12T16:51:04.449Z,-6.60
2022-12-12T16:53:33.489Z,-6.50
2022-12-12T16:58:29.484Z,-6.40
2022-12-12T17:00:58.118Z,-6.50
2022-12-12T17:05:52.997Z,-6.80
2022-12-12T17:10:52.159Z,-7.00
2022-12-12T17:13:25.124Z,-7.10
2022-12-12T17:15:55.574Z,-7.20
2022-12-12T17:18:23.592Z,-7.10
2022-12-12T17:20:50.684Z,-7.10
2022-12-12T17:23:28.152Z,-7.20
2022-12-12T17:26:02.582Z,-7.30
2022-12-12T17:28:33.733Z,-7.40
2022-12-12T17:33:29.052Z,-7.50
2022-12-12T17:36:07.272Z,-7.50
2022-12-12T17:38:34.496Z,-7.50
2022-12-12T17:41:08.896Z,-7.60
2022-12-12T17:43:37.543Z,-7.70
2022-12-12T17:46:14.299Z,-7.80
2022-12-12T17:48:47.097Z,-7.90
2022-12-12T17:51:21.833Z,-7.80
2022-12-12T17:53:50.949Z,-7.80
2022-12-12T17:56:22.806Z,-7.90
2022-12-12T17:58:50.984Z,-8.00
2022-12-12T18:01:20.708Z,-8.00
2022-12-12T18:03:49.564Z,-8.10
2022-12-12T18:06:20.439Z,-8.20
2022-12-12T18:08:49.836Z,-8.30
2022-12-12T18:11:24.388Z,-8.30
2022-12-12T18:13:53.757Z,-8.40
2022-12-12T18:16:24.311Z,-8.30
2022-12-12T18:18:52.359Z,-8.30
2022-12-12T18:21:59.184Z,-8.30
2022-12-12T18:29:13.496Z,-8.10
2022-12-12T18:34:11.239Z,-8.20
2022-12-12T18:39:07.522Z,-7.90
2022-12-12T18:41:36.703Z,-7.80
2022-12-12T18:44:13.344Z,-7.90
2022-12-12T18:46:43.519Z,-8.00
2022-12-12T18:49:16.035Z,-8.10
2022-12-12T18:51:46.470Z,-8.30
2022-12-12T18:56:46.626Z,-8.50
2022-12-12T18:59:15.599Z,-8.50
2022-12-12T19:01:42.891Z,-8.60
2022-12-12T19:06:43.136Z,-8.70
2022-12-12T19:09:17.479Z,-8.70
2022-12-12T19:11:47.209Z,-8.70
2022-12-12T19:14:16.207Z,-8.70
2022-12-12T19:16:44.948Z,-8.70
2022-12-12T19:19:13.562Z,-8.70
2022-12-12T19:21:42.244Z,-8.70
2022-12-12T19:26:43.725Z,-8.80
2022-12-12T19:29:16.741Z,-8.70
2022-12-12T19:31:45.248Z,-8.80
2022-12-12T19:34:16.119Z,-8.80
2022-12-12T19:36:43.499Z,-8.90
2022-12-12T19:39:11.878Z,-8.90
2022-12-12T19:46:42.525Z,-9.00
2022-12-12T19:49:14.667Z,-9.00
2022-12-12T19:51:45.227Z,-9.00
2022-12-12T19:54:19.562Z,-9.00
2022-12-12T19:56:47.416Z,-9.00
2022-12-12T19:59:18.312Z,-9.00
2022-12-12T20:01:46.269Z,-9.00
2022-12-12T20:04:23.738Z,-8.90
2022-12-12T20:09:26.980Z,-9.00
2022-12-12T20:11:56.375Z,-9.00
2022-12-12T20:14:31.957Z,-9.10
2022-12-12T20:17:00.389Z,-9.10
2022-12-12T20:22:01.679Z,-9.00
2022-12-12T20:24:31.455Z,-10.20
2022-12-12T20:34:28.721Z,-9.20
2022-12-12T20:36:56.082Z,-9.20
2022-12-12T20:39:29.482Z,-9.20
2022-12-12T20:46:55.970Z,-9.20
2022-12-12T20:49:24.493Z,-9.20
2022-12-12T20:54:27.287Z,-9.30
2022-12-12T20:56:55.973Z,-9.30
2022-12-12T20:59:27.253Z,-9.30
2022-12-12T21:04:24.104Z,-9.30
2022-12-12T21:09:26.920Z,-9.20
2022-12-12T21:11:57.679Z,-9.30
2022-12-12T21:14:30.459Z,-9.30
2022-12-12T21:21:53.687Z,-9.40
2022-12-12T21:24:21.258Z,-9.40
2022-12-12T21:29:16.714Z,-9.40
2022-12-12T21:31:50.884Z,-9.50
2022-12-12T21:34:22.579Z,-9.50
2022-12-12T21:36:56.349Z,-9.50
2022-12-12T21:39:28.322Z,-9.50
2022-12-12T21:41:56.390Z,-9.50
2022-12-12T21:44:24.526Z,-9.50
2022-12-12T21:51:47.750Z,-9.50
2022-12-12T21:54:15.917Z,-9.60
2022-12-12T21:56:44.181Z,-9.60
2022-12-12T21:59:13.127Z,-9.50
2022-12-12T22:01:41.546Z,-9.70
2022-12-12T22:04:11.806Z,-9.70
2022-12-12T22:06:40.050Z,-9.70
2022-12-12T22:09:11.182Z,-9.70
2022-12-12T22:11:49.356Z,-9.70
2022-12-12T22:14:19.481Z,-9.60
2022-12-12T22:16:46.829Z,-9.60
2022-12-12T22:19:16.173Z,-9.60
2022-12-12T22:21:47.603Z,-9.60
2022-12-12T22:24:17.212Z,-9.50
2022-12-12T22:26:48.759Z,-9.50
2022-12-12T22:29:20.012Z,-9.40
2022-12-12T22:34:23.112Z,-9.60
2022-12-12T22:39:25.169Z,-9.60
2022-12-12T22:44:25.151Z,-9.60
2022-12-12T22:46:55.056Z,-9.60
2022-12-12T22:49:26.276Z,-9.70
2022-12-12T22:51:56.604Z,-9.70
2022-12-12T22:59:19.536Z,-9.70
2022-12-12T23:01:46.498Z,-9.70
2022-12-12T23:04:14.802Z,-9.70
2022-12-12T23:06:43.559Z,-9.70
2022-12-12T23:09:22.871Z,-9.70
2022-12-12T23:14:22.846Z,-9.70
2022-12-12T23:16:51.715Z,-9.70
2022-12-12T23:19:25.678Z,-9.70
2022-12-12T23:26:51.705Z,-9.70
2022-12-12T23:31:47.997Z,-9.80
2022-12-12T23:34:23.968Z,-9.80
2022-12-12T23:36:56.583Z,-9.70
2022-12-12T23:39:27.669Z,-9.70
2022-12-12T23:41:55.669Z,-9.70
2022-12-12T23:44:25.027Z,-9.70
2022-12-12T23:49:23.238Z,-9.80
2022-12-12T23:51:57.193Z,-9.70
2022-12-12T23:54:35.069Z,-9.70
2022-12-12T23:57:03.333Z,-9.70
2022-12-12T23:59:30.911Z,-9.70
